Time;durP1;ratioP1;P1;durP2;ratioP2;P2;SDS_P1;SDS_P2;PMS_P1;PMS_P2;Temp;Humidity;BMP_temperature;BMP_pressure;BME280_temperature;BME280_humidity;BME280_pressure;Samples;Min_cycle;Max_cycle;Signal;HPM_P1;HPM_P2
2022/08/25 00:01:44;;;;;;;4.18;3.03;;;19.00;99.90;;;;;;5093476;28;20031;-79
2022/08/25 00:04:12;;;;;;;3.72;2.90;;;19.00;99.90;;;;;;5093650;28;20023;-78
2022/08/25 00:06:39;;;;;;;3.13;2.83;;;19.00;99.90;;;;;;5092421;28;20035;-77
2022/08/25 00:09:05;;;;;;;3.65;2.78;;;19.00;99.90;;;;;;5093814;28;20374;-78
2022/08/25 00:11:34;;;;;;;4.18;3.35;;;19.00;99.90;;;;;;5094029;28;20095;-78
2022/08/25 00:14:05;;;;;;;3.22;2.90;;;19.00;99.90;;;;;;5092482;28;20501;-78
2022/08/25 00:16:31;;;;;;;2.53;2.33;;;19.00;99.90;;;;;;5092689;28;20067;-79
2022/08/25 00:18:59;;;;;;;7.25;4.30;;;19.00;99.90;;;;;;5092824;28;20044;-79
2022/08/25 00:21:26;;;;;;;5.97;3.20;;;19.00;99.90;;;;;;5093657;28;20032;-77
2022/08/25 00:23:52;;;;;;;4.38;3.17;;;19.00;99.90;;;;;;5093827;28;20107;-79
2022/08/25 00:26:18;;;;;;;5.45;2.70;;;19.00;99.90;;;;;;5094043;28;20020;-78
2022/08/25 00:28:44;;;;;;;3.47;3.03;;;19.00;99.90;;;;;;5093752;28;20436;-78
2022/08/25 00:31:16;;;;;;;3.80;2.42;;;18.90;99.90;;;;;;5093320;28;20059;-78
2022/08/25 00:33:44;;;;;;;3.88;2.90;;;18.90;99.90;;;;;;5093484;28;20040;-79
2022/08/25 00:36:11;;;;;;;3.97;3.28;;;18.90;99.90;;;;;;5093200;28;20031;-79
2022/08/25 00:38:38;;;;;;;3.72;2.80;;;18.90;99.90;;;;;;5091623;28;20020;-77
2022/08/25 00:41:05;;;;;;;4.30;3.70;;;18.90;99.90;;;;;;5093363;28;20020;-78
2022/08/25 00:43:45;;;;;;;4.95;3.50;;;18.90;99.90;;;;;;5093293;28;20095;-79
2022/08/25 00:46:17;;;;;;;6.13;4.45;;;18.90;99.90;;;;;;5093321;28;20032;-78
2022/08/25 00:48:46;;;;;;;4.18;2.97;;;18.80;99.90;;;;;;5093255;28;20134;-77
2022/08/25 00:51:15;;;;;;;6.03;3.78;;;18.80;99.90;;;;;;5091722;28;20036;-79
2022/08/25 00:53:42;;;;;;;3.63;2.95;;;18.90;99.90;;;;;;5093044;28;20053;-76
2022/08/25 00:56:08;;;;;;;3.42;2.72;;;18.80;99.90;;;;;;5092573;28;20028;-78
2022/08/25 00:58:35;;;;;;;4.50;2.97;;;18.90;99.90;;;;;;5092934;28;20020;-78
2022/08/25 01:01:00;;;;;;;3.17;2.60;;;18.80;99.90;;;;;;5092926;28;20097;-77
2022/08/25 01:03:29;;;;;;;3.53;2.55;;;18.80;99.90;;;;;;5092926;28;20434;-77
2022/08/25 01:05:55;;;;;;;5.00;2.80;;;18.80;99.90;;;;;;5092658;28;20028;-76
2022/08/25 01:08:26;;;;;;;3.17;2.88;;;18.80;99.90;;;;;;5092918;28;20020;-78
2022/08/25 01:10:52;;;;;;;4.75;2.60;;;18.80;99.90;;;;;;5092597;28;20039;-78
2022/08/25 01:13:30;;;;;;;3.53;3.08;;;18.80;99.90;;;;;;5092915;28;20047;-77
2022/08/25 01:15:57;;;;;;;4.20;3.15;;;18.80;99.90;;;;;;5092604;28;20020;-76
2022/08/25 01:18:24;;;;;;;5.20;3.40;;;18.80;99.90;;;;;;5091208;28;20063;-79
2022/08/25 01:20:54;;;;;;;4.20;2.80;;;18.70;99.90;;;;;;5092786;28;20032;-78
2022/08/25 01:23:21;;;;;;;3.28;2.78;;;18.80;99.90;;;;;;5092575;28;20020;-80
2022/08/25 01:26:03;;;;;;;3.83;3.20;;;18.70;99.90;;;;;;5092662;28;20060;-77
2022/08/25 01:28:29;;;;;;;4.13;3.00;;;18.70;99.90;;;;;;5092644;28;20028;-78
2022/08/25 01:30:55;;;;;;;3.45;2.72;;;18.70;99.90;;;;;;5092047;28;20062;-77
2022/08/25 01:33:20;;;;;;;4.78;3.33;;;18.70;99.90;;;;;;5092395;28;20020;-75
2022/08/25 01:35:46;;;;;;;5.78;3.53;;;18.70;99.90;;;;;;5092393;28;20034;-78
2022/08/25 01:38:12;;;;;;;4.97;3.47;;;18.70;99.90;;;;;;5092333;28;20020;-78
2022/08/25 01:40:39;;;;;;;3.78;3.33;;;18.60;99.90;;;;;;5092449;28;20036;-77
2022/08/25 01:43:11;;;;;;;4.65;2.92;;;18.70;99.90;;;;;;5092396;28;20020;-80
2022/08/25 01:45:40;;;;;;;4.63;3.58;;;18.60;99.90;;;;;;5091131;28;20028;-78
2022/08/25 01:48:06;;;;;;;4.75;3.05;;;18.60;99.90;;;;;;5092143;28;20024;-78
2022/08/25 01:50:32;;;;;;;4.15;3.03;;;18.60;99.90;;;;;;5091853;28;20031;-78
2022/08/25 01:53:07;;;;;;;3.97;3.20;;;18.70;99.90;;;;;;5092302;28;20012;-78
2022/08/25 01:55:50;;;;;;;5.22;2.97;;;18.70;99.90;;;;;;5092030;28;20467;-79
2022/08/25 01:58:18;;;;;;;4.32;3.05;;;18.60;99.90;;;;;;5091947;28;20021;-78
2022/08/25 02:00:46;;;;;;;4.60;3.58;;;18.60;99.90;;;;;;5092132;28;20054;-78
2022/08/25 02:03:11;;;;;;;4.32;3.05;;;18.60;99.90;;;;;;5092061;28;20039;-79
2022/08/25 02:05:37;;;;;;;3.42;3.13;;;18.60;99.90;;;;;;5092045;28;20455;-78
2022/08/25 02:08:03;;;;;;;4.70;3.45;;;18.60;99.90;;;;;;5092236;28;20333;-78
2022/08/25 02:10:28;;;;;;;3.80;3.25;;;18.60;99.90;;;;;;5092170;28;20455;-78
2022/08/25 02:12:54;;;;;;;4.03;2.97;;;18.60;99.90;;;;;;5092069;28;20020;-78
2022/08/25 02:15:20;;;;;;;3.85;3.20;;;18.60;99.90;;;;;;5092190;28;20028;-77
2022/08/25 02:17:45;;;;;;;3.00;2.70;;;18.60;99.90;;;;;;5092098;28;20024;-78
2022/08/25 02:20:11;;;;;;;3.58;3.28;;;18.60;99.90;;;;;;5091989;28;20036;-80
2022/08/25 02:22:37;;;;;;;3.67;2.92;;;18.60;99.90;;;;;;5092122;28;20012;-77
2022/08/25 02:25:04;;;;;;;2.78;2.58;;;18.60;99.90;;;;;;5092051;28;20081;-79
2022/08/25 02:27:30;;;;;;;5.35;3.45;;;18.70;99.90;;;;;;5091899;28;20031;-79
2022/08/25 02:29:55;;;;;;;5.47;3.28;;;18.60;99.90;;;;;;5092067;28;20032;-77
2022/08/25 02:32:21;;;;;;;3.50;2.97;;;18.60;99.90;;;;;;5092071;28;20024;-79
2022/08/25 02:34:47;;;;;;;3.70;3.10;;;18.70;99.90;;;;;;5090580;28;20360;-79
2022/08/25 02:37:13;;;;;;;4.05;3.30;;;18.70;99.90;;;;;;5091433;28;20056;-79
2022/08/25 02:39:39;;;;;;;4.18;3.08;;;18.70;99.90;;;;;;5090356;28;20121;-80
2022/08/25 02:42:05;;;;;;;3.88;2.90;;;18.70;99.90;;;;;;5091799;28;20027;-79
2022/08/25 02:44:30;;;;;;;3.08;2.65;;;18.60;99.90;;;;;;5095276;28;20126;-80
2022/08/25 02:46:56;;;;;;;3.72;3.20;;;18.60;99.90;;;;;;5095228;28;20157;-80
2022/08/25 02:49:23;;;;;;;3.05;2.75;;;18.60;99.90;;;;;;5095337;28;20387;-79
2022/08/25 02:51:48;;;;;;;3.63;3.25;;;18.60;99.90;;;;;;5095202;28;20035;-79
2022/08/25 02:54:14;;;;;;;3.22;2.83;;;18.60;99.90;;;;;;5095218;28;20020;-77
2022/08/25 02:56:41;;;;;;;3.15;2.75;;;18.50;99.90;;;;;;5095096;28;20024;-79
2022/08/25 02:59:07;;;;;;;4.45;2.55;;;18.50;99.90;;;;;;5095036;28;20067;-79
2022/08/25 03:01:33;;;;;;;6.05;2.67;;;18.50;99.90;;;;;;5094887;28;20518;-76
2022/08/25 03:04:00;;;;;;;3.45;2.50;;;18.50;99.90;;;;;;5095212;28;20020;-79
2022/08/25 03:06:27;;;;;;;2.47;2.28;;;18.50;99.90;;;;;;5095135;28;20085;-80
2022/08/25 03:08:53;;;;;;;10.55;2.63;;;18.50;99.90;;;;;;5094686;28;20020;-79
2022/08/25 03:11:20;;;;;;;5.18;2.75;;;18.40;99.90;;;;;;5093501;28;20035;-79
2022/08/25 03:13:48;;;;;;;8.27;3.22;;;18.40;99.90;;;;;;5094577;28;20109;-79
2022/08/25 03:16:14;;;;;;;4.65;3.42;;;18.40;99.90;;;;;;5094467;28;20028;-79
2022/08/25 03:18:41;;;;;;;5.20;2.97;;;18.40;99.90;;;;;;5093050;28;20036;-78
2022/08/25 03:21:08;;;;;;;3.92;2.65;;;18.40;99.90;;;;;;5094653;28;20089;-78
2022/08/25 03:23:34;;;;;;;6.38;2.83;;;18.30;99.90;;;;;;5094922;28;20024;-78
2022/08/25 03:28:43;;;;;;;3.70;2.78;;;18.30;99.90;;;;;;5094486;28;20113;-76
2022/08/25 03:31:09;;;;;;;5.97;2.92;;;18.30;99.90;;;;;;5094407;28;20467;-77
2022/08/25 03:33:37;;;;;;;3.38;3.08;;;18.20;99.90;;;;;;5094393;28;20047;-78
2022/08/25 03:36:04;;;;;;;5.00;3.58;;;18.20;99.90;;;;;;5094425;28;20483;-78
2022/08/25 03:38:29;;;;;;;5.70;3.30;;;18.20;99.90;;;;;;5094286;28;20145;-78
2022/08/25 03:40:55;;;;;;;4.85;3.30;;;18.20;99.90;;;;;;5094046;28;20036;-78
2022/08/25 03:43:21;;;;;;;3.85;2.90;;;18.20;99.90;;;;;;5094146;28;20024;-79
2022/08/25 03:45:47;;;;;;;5.43;3.45;;;18.20;99.90;;;;;;5094228;28;20035;-79
2022/08/25 03:48:14;;;;;;;4.32;3.50;;;18.20;99.90;;;;;;5094025;28;20023;-78
2022/08/25 03:50:48;;;;;;;3.50;3.20;;;18.10;99.90;;;;;;5097604;28;20030;-76
2022/08/25 03:53:14;;;;;;;7.25;3.45;;;18.10;99.90;;;;;;5094015;28;20016;-77
2022/08/25 03:55:39;;;;;;;4.07;3.67;;;18.10;99.90;;;;;;5093841;28;20020;-77
2022/08/25 03:58:05;;;;;;;4.70;3.50;;;18.10;99.90;;;;;;5093835;28;20020;-79
2022/08/25 04:00:31;;;;;;;4.80;3.10;;;18.00;99.90;;;;;;5093723;28;20039;-78
2022/08/25 04:02:56;;;;;;;5.03;3.50;;;18.00;99.90;;;;;;5093828;28;20046;-76
2022/08/25 04:05:22;;;;;;;6.13;3.60;;;18.00;99.90;;;;;;5093837;28;20016;-79
2022/08/25 04:07:48;;;;;;;6.60;3.55;;;18.00;99.90;;;;;;5093339;28;20069;-78
2022/08/25 04:10:14;;;;;;;7.88;4.32;;;18.00;99.90;;;;;;5093538;28;20024;-76
2022/08/25 04:12:39;;;;;;;4.63;3.70;;;18.00;99.90;;;;;;5093549;28;20475;-78
2022/08/25 04:15:07;;;;;;;4.75;3.40;;;18.00;99.90;;;;;;5093365;28;20047;-78
2022/08/25 04:17:36;;;;;;;3.85;3.55;;;18.00;99.90;;;;;;5093319;28;20061;-78
2022/08/25 04:20:03;;;;;;;4.20;2.60;;;18.00;99.90;;;;;;5093324;28;20462;-79
2022/08/25 04:22:30;;;;;;;3.83;2.70;;;18.20;99.90;;;;;;5094550;28;20016;-78
2022/08/25 04:24:57;;;;;;;3.65;3.17;;;18.50;99.90;;;;;;5097725;28;20344;-79
2022/08/25 04:27:23;;;;;;;8.65;3.78;;;18.80;99.90;;;;;;5093489;28;20024;-77
2022/08/25 04:29:49;;;;;;;4.38;3.20;;;19.00;99.90;;;;;;5094860;28;20046;-77
2022/08/25 04:32:14;;;;;;;7.82;3.83;;;19.30;99.90;;;;;;5094291;28;20048;-77
2022/08/25 04:34:42;;;;;;;6.57;3.08;;;19.40;99.90;;;;;;5093392;28;20425;-78
2022/08/25 04:37:07;;;;;;;4.68;3.45;;;19.40;99.90;;;;;;5093221;28;20482;-78
2022/08/25 04:39:34;;;;;;;4.07;2.80;;;19.30;99.90;;;;;;5092057;28;20040;-77
2022/08/25 04:42:00;;;;;;;3.45;3.03;;;19.50;99.90;;;;;;5092207;28;20399;-78
2022/08/25 04:44:26;;;;;;;3.65;2.97;;;19.50;99.90;;;;;;5091871;28;20490;-78
2022/08/25 04:46:52;;;;;;;3.30;2.67;;;19.50;99.90;;;;;;5092106;28;20024;-76
2022/08/25 04:49:18;;;;;;;5.45;3.35;;;19.50;99.90;;;;;;5092898;28;20028;-78
2022/08/25 04:51:43;;;;;;;3.80;3.03;;;19.50;99.90;;;;;;5093210;28;20487;-75
2022/08/25 04:54:12;;;;;;;8.00;3.15;;;19.50;99.90;;;;;;5092982;28;20024;-77
2022/08/25 04:56:40;;;;;;;4.55;3.22;;;19.50;99.90;;;;;;5093018;28;20020;-78
2022/08/25 04:59:09;;;;;;;4.90;3.00;;;19.50;99.90;;;;;;5092966;28;20071;-78
2022/08/25 05:01:37;;;;;;;5.18;3.30;;;19.50;99.90;;;;;;5092656;28;20085;-78
2022/08/25 05:04:06;;;;;;;7.75;3.60;;;19.50;99.90;;;;;;5092906;28;20054;-77
2022/08/25 05:06:33;;;;;;;6.15;4.20;;;19.50;99.90;;;;;;5091054;28;20032;-77
2022/08/25 05:09:00;;;;;;;5.15;3.70;;;19.50;99.90;;;;;;5092470;28;20444;-78
2022/08/25 05:11:26;;;;;;;7.88;3.33;;;19.40;99.90;;;;;;5092573;28;20024;-76
2022/08/25 05:13:54;;;;;;;6.43;3.50;;;19.50;99.90;;;;;;5092622;28;20377;-77
2022/08/25 05:16:21;;;;;;;6.60;3.20;;;19.50;99.90;;;;;;5092770;28;20071;-78
2022/08/25 05:18:48;;;;;;;5.32;3.22;;;19.50;99.90;;;;;;5092272;28;20070;-78
2022/08/25 05:21:17;;;;;;;6.40;3.45;;;19.60;99.90;;;;;;5092598;28;20098;-78
2022/08/25 05:23:45;;;;;;;4.38;3.60;;;19.70;99.90;;;;;;5092634;28;20028;-78
2022/08/25 05:26:17;;;;;;;6.55;3.80;;;19.70;99.90;;;;;;5092496;28;20028;-76
2022/08/25 05:28:43;;;;;;;6.90;3.78;;;19.70;99.90;;;;;;5092287;28;20108;-76
2022/08/25 05:31:11;;;;;;;6.95;3.92;;;19.70;99.90;;;;;;5092384;28;20052;-76
2022/08/25 05:33:38;;;;;;;6.82;3.97;;;19.60;99.90;;;;;;5092584;28;20052;-77
2022/08/25 05:36:05;;;;;;;5.55;3.30;;;19.60;99.90;;;;;;5091236;28;20024;-77
2022/08/25 05:38:31;;;;;;;4.05;3.03;;;19.60;99.90;;;;;;5092458;28;20047;-78
2022/08/25 05:40:59;;;;;;;6.60;3.15;;;19.70;99.90;;;;;;5092215;28;20039;-77
2022/08/25 05:43:24;;;;;;;4.65;3.75;;;19.70;99.90;;;;;;5092455;28;20016;-76
2022/08/25 05:45:54;;;;;;;6.55;3.67;;;19.80;99.90;;;;;;5092322;28;20425;-78
2022/08/25 05:48:19;;;;;;;3.85;2.97;;;19.80;99.90;;;;;;5091929;28;20378;-76
2022/08/25 05:50:57;;;;;;;10.10;3.42;;;19.90;99.90;;;;;;5092286;28;20099;-77
2022/08/25 05:53:23;;;;;;;6.53;2.85;;;20.00;99.90;;;;;;5091910;28;20020;-78
2022/08/25 05:55:51;;;;;;;5.95;3.13;;;20.10;99.90;;;;;;5091990;28;20028;-76
2022/08/25 05:58:17;;;;;;;5.72;2.88;;;20.10;99.90;;;;;;5091765;28;20028;-77
2022/08/25 06:00:43;;;;;;;6.68;3.35;;;20.30;99.90;;;;;;5091954;28;20038;-78
2022/08/25 06:03:09;;;;;;;5.68;3.05;;;20.30;99.90;;;;;;5092121;28;20024;-76
2022/08/25 06:05:35;;;;;;;4.63;3.40;;;20.30;99.90;;;;;;5092159;28;20031;-77
2022/08/25 06:08:01;;;;;;;7.53;3.53;;;20.20;99.90;;;;;;5091913;28;20027;-75
2022/08/25 06:10:27;;;;;;;8.57;3.33;;;20.10;99.90;;;;;;5091865;28;20024;-76
2022/08/25 06:12:53;;;;;;;3.42;2.78;;;20.10;99.90;;;;;;5091773;28;20429;-78
2022/08/25 06:15:22;;;;;;;3.65;3.17;;;20.20;99.90;;;;;;5091156;28;20020;-78
2022/08/25 06:17:48;;;;;;;6.82;3.88;;;20.20;99.90;;;;;;5092640;28;20036;-78
2022/08/25 06:20:18;;;;;;;5.60;4.55;;;20.20;99.90;;;;;;5095927;28;20024;-78
2022/08/25 06:22:44;;;;;;;5.47;3.67;;;20.30;99.90;;;;;;5096050;28;20035;-79
2022/08/25 06:25:12;;;;;;;4.85;4.10;;;20.20;99.90;;;;;;5095491;28;20345;-78
2022/08/25 06:27:38;;;;;;;5.85;3.80;;;20.20;99.90;;;;;;5095502;28;20024;-79
2022/08/25 06:30:06;;;;;;;3.70;3.35;;;20.30;99.90;;;;;;5094960;28;20475;-78
2022/08/25 06:32:40;;;;;;;7.93;3.88;;;20.30;99.90;;;;;;5095505;28;20428;-77
2022/08/25 06:35:09;;;;;;;5.88;3.25;;;20.20;99.90;;;;;;5095495;28;20085;-79
2022/08/25 06:37:36;;;;;;;5.45;3.45;;;20.20;99.90;;;;;;5095322;28;20047;-77
2022/08/25 06:40:03;;;;;;;6.90;3.42;;;20.30;99.90;;;;;;5095406;28;20467;-78
2022/08/25 06:42:28;;;;;;;6.95;4.05;;;20.30;99.90;;;;;;5095551;28;20013;-77
2022/08/25 06:44:54;;;;;;;5.05;3.72;;;20.40;99.90;;;;;;5094997;28;20081;-76
2022/08/25 06:47:20;;;;;;;4.68;3.83;;;20.50;99.90;;;;;;5095032;28;20081;-79
2022/08/25 06:49:45;;;;;;;5.00;4.00;;;20.50;99.90;;;;;;5095303;28;20128;-77
2022/08/25 06:52:11;;;;;;;5.82;3.40;;;20.60;99.90;;;;;;5095144;28;20028;-78
2022/08/25 06:54:38;;;;;;;5.10;3.70;;;20.50;99.90;;;;;;5094923;28;20496;-77
2022/08/25 06:57:05;;;;;;;4.50;3.20;;;20.50;99.90;;;;;;5094939;28;20023;-77
2022/08/25 06:59:31;;;;;;;6.50;3.88;;;20.50;99.90;;;;;;5094725;28;20035;-76
2022/08/25 07:01:58;;;;;;;4.20;3.55;;;20.70;99.90;;;;;;5094546;28;20356;-77
2022/08/25 07:04:24;;;;;;;6.22;3.90;;;20.70;99.90;;;;;;5094712;28;20370;-76
2022/08/25 07:06:49;;;;;;;4.60;3.17;;;20.80;99.90;;;;;;5093191;28;20471;-77
2022/08/25 07:09:15;;;;;;;4.53;3.78;;;20.80;99.90;;;;;;5094800;28;20024;-76
2022/08/25 07:11:42;;;;;;;4.65;3.33;;;20.80;99.90;;;;;;5093105;28;20016;-79
2022/08/25 07:14:10;;;;;;;5.00;4.00;;;20.90;99.90;;;;;;5094700;28;20028;-77
2022/08/25 07:16:40;;;;;;;5.05;3.20;;;21.00;99.90;;;;;;5094519;28;20026;-75
2022/08/25 07:19:05;;;;;;;6.95;3.50;;;21.00;99.90;;;;;;5094364;28;20040;-78
2022/08/25 07:21:33;;;;;;;5.38;3.58;;;21.00;99.90;;;;;;5094534;28;20039;-75
2022/08/25 07:24:02;;;;;;;5.43;3.58;;;21.10;99.90;;;;;;5094706;28;20425;-78
2022/08/25 07:26:30;;;;;;;5.07;3.58;;;21.00;99.90;;;;;;5094977;28;20089;-79
2022/08/25 07:28:57;;;;;;;7.63;3.92;;;21.10;99.90;;;;;;5092924;28;20493;-77
2022/08/25 07:31:23;;;;;;;15.48;4.97;;;21.10;99.90;;;;;;5094800;28;20036;-77
2022/08/25 07:36:34;;;;;;;7.63;3.78;;;21.30;99.90;;;;;;5093918;28;20485;-77
2022/08/25 07:39:04;;;;;;;6.20;4.32;;;21.30;99.90;;;;;;5093924;28;20028;-77
2022/08/25 07:41:31;;;;;;;8.98;4.07;;;21.40;99.90;;;;;;5094315;28;20021;-79
2022/08/25 07:43:56;;;;;;;6.07;4.10;;;21.50;99.90;;;;;;5094318;28;20348;-78
2022/08/25 07:46:22;;;;;;;4.40;3.80;;;21.60;99.90;;;;;;5094222;28;20031;-77
2022/08/25 07:48:48;;;;;;;7.68;3.95;;;21.70;99.90;;;;;;5094256;28;20047;-78
2022/08/25 07:51:14;;;;;;;11.88;3.55;;;21.80;99.90;;;;;;5094333;28;20024;-78
2022/08/25 07:53:40;;;;;;;5.55;4.57;;;21.90;99.90;;;;;;5093942;28;20031;-77
2022/08/25 07:56:11;;;;;;;6.63;4.50;;;22.10;99.90;;;;;;5094152;28;20020;-78
2022/08/25 07:58:38;;;;;;;6.22;3.88;;;22.30;99.90;;;;;;5093893;28;20457;-78
2022/08/25 08:01:04;;;;;;;9.05;4.20;;;22.50;99.90;;;;;;5093840;28;20082;-79
2022/08/25 08:03:30;;;;;;;9.82;4.38;;;22.60;99.90;;;;;;5093838;28;20157;-77
2022/08/25 08:05:56;;;;;;;5.47;4.00;;;22.80;99.90;;;;;;5094057;28;20028;-77
2022/08/25 08:08:22;;;;;;;9.27;5.15;;;22.90;99.90;;;;;;5093179;28;20028;-78
2022/08/25 08:10:48;;;;;;;10.70;6.22;;;23.10;99.90;;;;;;5093636;28;20035;-78
2022/08/25 08:13:13;;;;;;;8.30;4.72;;;23.20;99.90;;;;;;5093571;28;20386;-78
2022/08/25 08:15:42;;;;;;;8.77;5.05;;;23.30;99.90;;;;;;5093874;28;20055;-80
2022/08/25 08:18:08;;;;;;;10.90;5.90;;;23.40;99.90;;;;;;5093425;28;20039;-77
2022/08/25 08:20:34;;;;;;;9.13;5.68;;;23.50;99.90;;;;;;5093680;28;20042;-77
2022/08/25 08:23:00;;;;;;;11.73;6.43;;;23.70;99.90;;;;;;5093001;28;20028;-77
2022/08/25 08:25:26;;;;;;;12.38;6.50;;;23.70;99.90;;;;;;5093460;28;20027;-79
2022/08/25 08:27:51;;;;;;;12.20;7.07;;;23.80;99.90;;;;;;5093103;28;20111;-79
2022/08/25 08:30:17;;;;;;;10.77;6.70;;;23.90;99.90;;;;;;5093321;28;20477;-78
2022/08/25 08:32:43;;;;;;;16.52;6.95;;;23.90;99.90;;;;;;5093425;28;20077;-80
2022/08/25 08:35:10;;;;;;;13.55;6.45;;;24.00;99.90;;;;;;5092754;28;20387;-80
2022/08/25 08:37:40;;;;;;;13.27;6.88;;;24.20;99.90;;;;;;5093210;28;20052;-79
2022/08/25 08:40:08;;;;;;;13.23;6.25;;;24.50;99.90;;;;;;5091892;28;20036;-75
2022/08/25 08:42:56;;;;;;;21.20;6.88;;;24.40;99.90;;;;;;5093110;28;20089;-78
2022/08/25 08:45:59;;;;;;;15.63;6.38;;;24.50;99.90;;;;;;5092926;28;20073;-79
2022/08/25 08:48:45;;;;;;;10.98;6.28;;;24.50;99.90;;;;;;5092352;28;20040;-78
2022/08/25 08:51:23;;;;;;;13.32;6.03;;;24.70;99.90;;;;;;5080608;28;20036;-79
2022/08/25 08:53:57;;;;;;;15.55;6.38;;;24.80;99.90;;;;;;5092510;28;20020;-79
2022/08/25 08:56:35;;;;;;;14.65;6.15;;;24.80;99.90;;;;;;5092515;28;20417;-78
2022/08/25 08:59:04;;;;;;;9.95;6.32;;;24.80;99.90;;;;;;5092527;28;20055;-80
2022/08/25 09:01:34;;;;;;;11.57;6.43;;;24.90;99.90;;;;;;5091719;28;20039;-76
2022/08/25 09:04:21;;;;;;;13.45;7.32;;;24.80;99.90;;;;;;5092870;28;20020;-79
2022/08/25 09:06:49;;;;;;;9.85;5.07;;;24.60;99.90;;;;;;5092591;28;20024;-79
2022/08/25 09:09:24;;;;;;;20.60;8.15;;;24.60;99.90;;;;;;5092455;28;20430;-78
2022/08/25 09:12:20;;;;;;;14.68;6.30;;;24.60;99.90;;;;;;5092308;28;20107;-80
2022/08/25 09:15:19;;;;;;;12.52;6.13;;;24.50;99.90;;;;;;5092377;28;20047;-80
2022/08/25 09:18:03;;;;;;;15.65;6.50;;;24.50;99.90;;;;;;5092204;28;20052;-79
2022/08/25 09:20:41;;;;;;;10.23;6.00;;;24.60;99.90;;;;;;5092372;28;20043;-80
2022/08/25 09:23:19;;;;;;;18.23;6.65;;;24.70;99.90;;;;;;5092362;28;20020;-79
2022/08/25 09:26:19;;;;;;;12.43;7.45;;;24.70;99.90;;;;;;5092400;28;20073;-79
2022/08/25 09:28:48;;;;;;;13.75;6.68;;;24.70;99.90;;;;;;5092075;28;20031;-80
2022/08/25 09:31:30;;;;;;;13.93;6.28;;;24.60;99.90;;;;;;5092080;28;20024;-77
2022/08/25 09:33:59;;;;;;;17.58;6.47;;;24.80;99.90;;;;;;5090750;28;20031;-80
2022/08/25 09:36:25;;;;;;;16.02;6.20;;;24.80;99.90;;;;;;5092168;28;20467;-77
2022/08/25 09:38:51;;;;;;;10.07;5.85;;;24.90;99.90;;;;;;5091842;28;20028;-79
2022/08/25 09:41:50;;;;;;;17.20;7.50;;;25.00;99.90;;;;;;5091909;28;20062;-80
2022/08/25 09:44:23;;;;;;;10.98;5.53;;;25.00;99.90;;;;;;5092027;28;20025;-80
2022/08/25 09:47:02;;;;;;;10.85;4.95;;;24.80;99.90;;;;;;5092002;28;20558;-78
2022/08/25 09:49:38;;;;;;;11.35;5.60;;;24.90;99.90;;;;;;5092187;28;20059;-77
2022/08/25 09:52:32;;;;;;;12.98;5.80;;;24.80;99.90;;;;;;5093708;28;20547;-77
2022/08/25 09:55:30;;;;;;;11.98;5.85;;;24.80;99.90;;;;;;5096348;28;20024;-80
2022/08/25 09:57:57;;;;;;;10.27;5.65;;;24.90;99.90;;;;;;5095548;28;20042;-78
2022/08/25 10:00:33;;;;;;;12.82;6.85;;;24.90;99.90;;;;;;5095826;28;20117;-79
2022/08/25 10:03:12;;;;;;;14.25;6.75;;;25.00;99.90;;;;;;5096164;28;20028;-77
2022/08/25 10:06:03;;;;;;;13.68;6.22;;;25.00;99.90;;;;;;5094656;28;20103;-77
2022/08/25 10:08:38;;;;;;;9.63;5.28;;;25.00;99.90;;;;;;5095660;28;20027;-79
2022/08/25 10:11:08;;;;;;;10.77;5.93;;;25.10;99.90;;;;;;5094469;28;20024;-79
2022/08/25 10:13:39;;;;;;;12.25;6.15;;;25.10;99.90;;;;;;5095673;28;20102;-80
2022/08/25 10:16:27;;;;;;;14.68;5.07;;;25.00;99.90;;;;;;5095784;28;20031;-79
2022/08/25 10:19:12;;;;;;;13.52;5.82;;;25.00;99.90;;;;;;5095340;28;20564;-79
2022/08/25 10:21:40;;;;;;;10.65;5.25;;;25.10;99.90;;;;;;5095460;28;20059;-77
2022/08/25 10:24:08;;;;;;;10.27;5.28;;;25.20;99.90;;;;;;5095495;28;20098;-78
2022/08/25 10:26:58;;;;;;;10.57;5.68;;;25.20;99.90;;;;;;5095560;28;20055;-77
2022/08/25 10:29:38;;;;;;;10.50;5.35;;;25.20;99.90;;;;;;5095448;28;20024;-78
2022/08/25 10:32:14;;;;;;;13.05;5.43;;;25.20;99.90;;;;;;5095540;28;20016;-77
2022/08/25 10:34:55;;;;;;;10.65;6.50;;;25.20;99.90;;;;;;5095272;28;20032;-79
2022/08/25 10:37:41;;;;;;;10.82;5.88;;;25.30;99.90;;;;;;5095283;28;20134;-79
2022/08/25 10:40:31;;;;;;;16.75;5.95;;;25.30;99.90;;;;;;5095024;28;20040;-79
2022/08/25 10:43:10;;;;;;;9.70;5.93;;;25.40;99.90;;;;;;5095257;28;20028;-79
2022/08/25 10:45:53;;;;;;;8.35;6.22;;;25.40;99.90;;;;;;5094997;28;20024;-79
2022/08/25 10:48:55;;;;;;;11.93;5.47;;;25.50;99.90;;;;;;5093797;28;20012;-80
2022/08/25 10:51:42;;;;;;;8.45;5.65;;;25.60;99.90;;;;;;5094956;28;20020;-78
2022/08/25 10:54:23;;;;;;;11.23;5.45;;;25.70;99.90;;;;;;5095161;28;20031;-78
2022/08/25 10:56:55;;;;;;;12.93;5.47;;;25.90;99.50;;;;;;5093681;28;20475;-79
2022/08/25 10:59:36;;;;;;;12.07;5.38;;;26.00;98.90;;;;;;5094845;28;20028;-80
2022/08/25 11:02:12;;;;;;;9.90;4.90;;;26.20;98.20;;;;;;5095309;28;20103;-80
2022/08/25 11:04:58;;;;;;;11.45;5.35;;;26.40;98.60;;;;;;5094067;28;20016;-81
2022/08/25 11:07:43;;;;;;;10.93;4.35;;;26.60;96.80;;;;;;5093386;28;20462;-79
2022/08/25 11:10:37;;;;;;;7.53;5.10;;;26.70;95.60;;;;;;5094954;28;20111;-80
2022/08/25 11:13:09;;;;;;;13.57;5.35;;;26.60;95.40;;;;;;5093785;28;20036;-79
2022/08/25 11:15:51;;;;;;;7.13;4.28;;;26.60;95.20;;;;;;5094948;28;20083;-79
2022/08/25 11:18:16;;;;;;;6.90;4.55;;;26.70;94.90;;;;;;5094754;28;20127;-80
2022/08/25 11:21:10;;;;;;;11.30;5.22;;;26.80;95.40;;;;;;5094815;28;20415;-79
2022/08/25 11:23:54;;;;;;;8.05;4.85;;;26.90;95.10;;;;;;5094706;28;20030;-79
2022/08/25 11:26:28;;;;;;;11.43;5.10;;;27.00;94.30;;;;;;5094763;28;20020;-79
2022/08/25 11:29:15;;;;;;;10.13;4.80;;;27.20;93.90;;;;;;5092959;28;20371;-79
2022/08/25 11:31:46;;;;;;;7.35;4.28;;;27.20;93.50;;;;;;5094384;28;20497;-79
2022/08/25 11:34:14;;;;;;;5.40;3.72;;;27.30;92.90;;;;;;5094527;28;20020;-80
2022/08/25 11:36:47;;;;;;;7.03;4.38;;;27.30;92.60;;;;;;5094271;28;20109;-79
2022/08/25 11:39:34;;;;;;;11.18;4.38;;;27.40;92.90;;;;;;5094285;28;20099;-77
2022/08/25 11:42:05;;;;;;;9.75;5.00;;;27.50;92.80;;;;;;5094381;28;20035;-75
2022/08/25 11:44:50;;;;;;;10.77;5.85;;;27.60;93.00;;;;;;5094141;28;20024;-78
2022/08/25 11:47:41;;;;;;;9.00;4.35;;;27.70;93.00;;;;;;5093934;28;20020;-78
2022/08/25 11:50:24;;;;;;;9.95;4.30;;;27.60;92.30;;;;;;5092787;28;20051;-79
2022/08/25 11:52:55;;;;;;;9.35;5.05;;;27.70;92.30;;;;;;5094094;28;20425;-80
2022/08/25 11:55:45;;;;;;;8.32;4.18;;;27.70;91.90;;;;;;5093953;28;20023;-79
2022/08/25 11:58:26;;;;;;;10.38;4.85;;;27.70;91.70;;;;;;5094142;28;20505;-78
2022/08/25 12:00:51;;;;;;;11.20;4.60;;;27.50;92.00;;;;;;5077424;28;20131;-80
2022/08/25 12:03:35;;;;;;;8.63;4.50;;;27.40;92.10;;;;;;5094459;28;20047;-79
2022/08/25 12:06:15;;;;;;;9.23;4.00;;;27.30;92.50;;;;;;5094024;28;20032;-79
2022/08/25 12:09:18;;;;;;;10.40;4.40;;;27.20;92.80;;;;;;5096297;28;20024;-75
2022/08/25 12:11:45;;;;;;;6.35;3.85;;;27.10;92.60;;;;;;5096828;28;20021;-78
2022/08/25 12:14:25;;;;;;;10.07;4.47;;;27.10;92.60;;;;;;5096607;28;20032;-80
2022/08/25 12:16:54;;;;;;;7.05;3.90;;;27.10;92.60;;;;;;5094341;28;20580;-78
2022/08/25 12:19:34;;;;;;;6.30;3.90;;;27.20;92.00;;;;;;5095766;28;20098;-80
2022/08/25 12:22:00;;;;;;;8.48;3.83;;;27.40;91.90;;;;;;5094871;28;20107;-80
2022/08/25 12:24:44;;;;;;;8.85;4.45;;;27.50;91.40;;;;;;5096127;28;20043;-79
2022/08/25 12:27:28;;;;;;;8.38;3.35;;;27.70;90.70;;;;;;5095657;28;20047;-80
2022/08/25 12:29:57;;;;;;;8.77;4.40;;;27.90;90.70;;;;;;5093839;28;20068;-79
2022/08/25 12:32:25;;;;;;;7.90;3.83;;;28.10;90.20;;;;;;5093822;28;20028;-78
2022/08/25 12:35:39;;;;;;;10.35;3.50;;;28.20;89.50;;;;;;5093403;28;20023;-77
2022/08/25 12:38:15;;;;;;;5.28;3.75;;;28.30;88.50;;;;;;5074544;28;20154;-80
2022/08/25 12:40:46;;;;;;;7.53;3.72;;;28.30;88.40;;;;;;5094261;28;20421;-77
2022/08/25 12:43:27;;;;;;;7.88;4.18;;;28.40;88.70;;;;;;5094857;28;20036;-79
2022/08/25 12:46:18;;;;;;;5.72;3.17;;;28.30;87.60;;;;;;5093022;28;20028;-78
2022/08/25 12:49:10;;;;;;;5.43;3.22;;;28.20;87.50;;;;;;5095851;28;20563;-78
2022/08/25 12:51:39;;;;;;;5.57;3.72;;;28.40;86.30;;;;;;5093597;28;20028;-79
2022/08/25 12:54:33;;;;;;;10.88;4.50;;;28.50;86.90;;;;;;5091671;28;20054;-80
2022/08/25 12:57:03;;;;;;;7.90;4.00;;;28.50;86.60;;;;;;5093362;28;20028;-80
2022/08/25 12:59:40;;;;;;;5.05;3.28;;;28.50;86.70;;;;;;5093354;28;20052;-76
2022/08/25 13:02:39;;;;;;;8.13;3.78;;;28.50;86.50;;;;;;5093639;28;20032;-78
2022/08/25 13:05:30;;;;;;;5.18;3.08;;;28.50;85.40;;;;;;5092865;28;20111;-80
2022/08/25 13:08:19;;;;;;;10.50;3.55;;;28.50;83.30;;;;;;5093397;28;20016;-77
2022/08/25 13:10:56;;;;;;;11.82;3.88;;;28.40;84.70;;;;;;5093630;28;20023;-77
2022/08/25 13:13:27;;;;;;;7.05;4.60;;;28.40;86.00;;;;;;5092990;28;20055;-78